This is the latest recevied weather packets stored in our database for station/object EA1GLE. If no packets are shown the sender has not sent any weather packets the latest 10 day(s).
| Time | Temp. | Humidity | Pressure | Rain* | Wind** | Luminosity | Snow |
|---|---|---|---|---|---|---|---|
| 1777812843 | 15.56° C | 76% | 1014.3 hPa | 0 mm | - | 248 W/m² | - |
| 1777811764 | 16.11° C | 77% | 1014.4 hPa | 0 mm | - | 504 W/m² | - |
| 1777808703 | 13.89° C | 83% | 1015.6 hPa | 0 mm | - | 227 W/m² | - |
| 1777796958 | 11.67° C | 99% | 1015.7 hPa | 0 mm | - | 142 W/m² | - |
| 1777794843 | 11.11° C | 99% | 1015.7 hPa | 0 mm | - | 95 W/m² | - |
| 1777787643 | 8.33° C | 99% | 1015.8 hPa | 0 mm | - | 23 W/m² | - |
| 1777786563 | 8.33° C | 99% | 1015.8 hPa | 0 mm | - | 9 W/m² | - |
| 1777783504 | 8.89° C | 99% | 1015.6 hPa | 0 mm | - | 0 W/m² | - |
| 1777781883 | 9.44° C | 99% | 1015.9 hPa | 0 mm | - | 0 W/m² | - |
| 1777779904 | 9.44° C | 99% | 1015.8 hPa | 0 mm | - | 0 W/m² | - |
| 1777775764 | 8.89° C | 99% | 1015.8 hPa | 0 mm | - | 0 W/m² | - |
| 1777775223 | 8.89° C | 99% | 1016.1 hPa | 0 mm | - | 0 W/m² | - |
| 1777774143 | 9.44° C | 99% | 1016.1 hPa | 0 mm | - | 0 W/m² | - |
| 1777773603 | 9.44° C | 99% | 1016.3 hPa | 0 mm | - | 0 W/m² | - |
| 1777772164 | 10° C | 99% | 1016.2 hPa | 0 mm | - | 0 W/m² | - |
| 1777771083 | 9.44° C | 99% | 1016.3 hPa | 0 mm | - | 0 W/m² | - |
| 1777769103 | 9.44° C | 99% | 1016.7 hPa | 0 mm | - | 0 W/m² | - |
| 1777766043 | 10° C | 99% | 1017 hPa | 0 mm | - | 0 W/m² | - |
| 1777749484 | 11.67° C | 99% | 1016.5 hPa | 0.25 mm | - | 0 W/m² | - |
| 1777748177 | 12.22° C | 99% | 1016.5 hPa | 0.51 mm | - | 12 W/m² | - |
| 1777743364 | 12.78° C | 98% | 1016.4 hPa | 3.3 mm | - | 79 W/m² | - |
| 1777738684 | 12.78° C | 86% | 1016.6 hPa | 0.51 mm | - | 31 W/m² | - |
| 1777737738 | 13.89° C | 77% | 1016.8 hPa | 0 mm | - | 47 W/m² | - |
| 1777730043 | 12.22° C | 98% | 1018.1 hPa | 2.29 mm | - | 399 W/m² | - |
| 1777729503 | 12.22° C | 98% | 1017.7 hPa | 5.33 mm | - | 445 W/m² | - |
* Rain latest hour (hover to see other rain measurements)
** Current wind speed in m/s (hover to see current wind gust speed)